Time;durP1;ratioP1;P1;durP2;ratioP2;P2;SDS_P1;SDS_P2;PMS_P1;PMS_P2;Temp;Humidity;BMP_temperature;BMP_pressure;BME280_temperature;BME280_humidity;BME280_pressure;Samples;Min_cycle;Max_cycle;Signal;HPM_P1;HPM_P2
2021/03/01 00:00:22;;;;;;;15.97;8.97;;;;;;;-0.14;71.28;96953.22;5012968;28;20203;-77
2021/03/01 00:02:47;;;;;;;16.37;8.90;;;;;;;-0.15;71.29;96949.84;5012806;28;20639;-77
2021/03/01 00:05:15;;;;;;;13.10;8.53;;;;;;;-0.18;71.51;96949.06;5012467;28;20182;-77
2021/03/01 00:07:42;;;;;;;16.27;9.43;;;;;;;-0.22;71.57;96943.25;5024113;28;20320;-77
2021/03/01 00:10:08;;;;;;;14.17;9.43;;;;;;;-0.13;71.32;96940.41;5032299;28;20659;-77
2021/03/01 00:12:34;;;;;;;13.73;8.93;;;;;;;-0.15;71.50;96938.78;5032309;28;20295;-77
2021/03/01 00:14:59;;;;;;;12.73;8.27;;;;;;;-0.20;71.83;96941.47;5021453;28;20286;-77
2021/03/01 00:17:24;;;;;;;13.07;8.23;;;;;;;-0.22;71.64;96937.31;5012764;28;20334;-77
2021/03/01 00:19:50;;;;;;;12.57;8.23;;;;;;;-0.26;71.48;96940.84;5013764;28;20210;-77
2021/03/01 00:22:15;;;;;;;11.03;8.50;;;;;;;-0.18;71.51;96943.97;5028553;28;20176;-78
2021/03/01 00:24:40;;;;;;;12.37;8.20;;;;;;;-0.19;71.41;96939.75;5013290;28;20236;-78
2021/03/01 00:27:06;;;;;;;12.70;8.37;;;;;;;-0.16;71.37;96944.78;5013574;28;20183;-78
2021/03/01 00:29:31;;;;;;;12.73;8.57;;;;;;;-0.17;71.06;96946.50;4996011;28;20635;-77
2021/03/01 00:31:56;;;;;;;11.63;8.00;;;;;;;-0.21;71.36;96946.63;4995982;28;20222;-77
2021/03/01 00:34:21;;;;;;;12.70;7.70;;;;;;;-0.22;71.33;96942.41;4995719;28;20183;-77
2021/03/01 00:36:47;;;;;;;11.77;8.10;;;;;;;-0.21;71.12;96942.34;5025890;28;20185;-77
2021/03/01 00:39:12;;;;;;;12.10;7.57;;;;;;;-0.23;71.52;96936.47;5033190;28;20560;-77
2021/03/01 00:41:37;;;;;;;11.00;8.00;;;;;;;-0.30;71.56;96932.44;5015204;28;20188;-77
2021/03/01 00:44:03;;;;;;;11.67;7.77;;;;;;;-0.32;71.25;96932.50;5033058;28;20650;-77
2021/03/01 00:46:28;;;;;;;11.77;7.80;;;;;;;-0.40;71.43;96933.59;5026809;28;20249;-77
2021/03/01 00:48:53;;;;;;;11.67;7.90;;;;;;;-0.42;71.76;96930.28;5013171;28;20179;-77
2021/03/01 00:51:19;;;;;;;12.67;8.07;;;;;;;-0.44;71.86;96929.47;5011944;28;20230;-77
2021/03/01 00:53:44;;;;;;;11.60;7.67;;;;;;;-0.46;71.86;96937.16;5011870;28;20190;-77
2021/03/01 00:56:09;;;;;;;11.57;7.40;;;;;;;-0.46;71.91;96934.63;5012127;28;20183;-78
2021/03/01 00:58:34;;;;;;;9.43;7.60;;;;;;;-0.39;71.49;96932.72;5028867;28;20229;-77
2021/03/01 01:01:00;;;;;;;12.13;7.87;;;;;;;-0.39;71.57;96933.56;5031571;28;20206;-77
2021/03/01 01:03:25;;;;;;;12.53;7.93;;;;;;;-0.47;71.52;96932.94;5031512;28;20179;-77
2021/03/01 01:05:50;;;;;;;13.07;7.30;;;;;;;-0.45;71.54;96933.75;5031177;28;20528;-78
2021/03/01 01:08:16;;;;;;;12.57;7.80;;;;;;;-0.49;71.93;96933.91;5023173;28;20729;-77
2021/03/01 01:10:41;;;;;;;11.57;7.67;;;;;;;-0.53;71.70;96930.63;4995089;28;20207;-77
2021/03/01 01:13:07;;;;;;;11.57;7.43;;;;;;;-0.56;71.94;96935.78;5011405;28;20245;-77
2021/03/01 01:15:32;;;;;;;10.90;6.83;;;;;;;-0.58;71.83;96937.56;5011336;28;20215;-77
2021/03/01 01:17:57;;;;;;;12.07;7.73;;;;;;;-0.60;72.09;96927.41;5012631;28;20179;-77
2021/03/01 01:20:23;;;;;;;16.07;8.63;;;;;;;-0.66;71.84;96927.56;5011371;28;20226;-77
2021/03/01 01:22:48;;;;;;;11.70;7.90;;;;;;;-0.56;71.98;96925.59;5011215;28;20187;-77
2021/03/01 01:25:15;;;;;;;12.23;7.30;;;;;;;-0.47;71.44;96927.84;5011042;28;20241;-78
2021/03/01 01:27:41;;;;;;;9.53;6.80;;;;;;;-0.50;71.36;96927.94;5023256;28;20221;-78
2021/03/01 01:30:25;;;;;;;14.17;8.00;;;;;;;-0.53;71.48;96917.84;5031024;28;20246;-77
2021/03/01 01:32:51;;;;;;;15.03;7.53;;;;;;;-0.52;71.52;96919.53;5014458;28;20580;-77
2021/03/01 01:35:18;;;;;;;11.83;7.50;;;;;;;-0.53;71.57;96917.84;5030650;28;20190;-77
2021/03/01 01:37:43;;;;;;;11.73;7.43;;;;;;;-0.57;71.21;96913.72;5013979;28;20189;-77
2021/03/01 01:40:11;;;;;;;10.37;6.97;;;;;;;-0.59;71.31;96918.03;5014280;28;20206;-77
2021/03/01 01:42:36;;;;;;;11.10;6.67;;;;;;;-0.63;71.82;96912.16;5030837;28;20639;-77
2021/03/01 01:45:07;;;;;;;10.43;7.23;;;;;;;-0.63;71.73;96913.88;5030535;28;20184;-77
2021/03/01 01:47:32;;;;;;;9.47;6.53;;;;;;;-0.68;71.52;96915.75;5030061;28;20638;-77
2021/03/01 01:49:57;;;;;;;12.03;7.27;;;;;;;-0.71;71.99;96914.09;5013965;28;20296;-77
2021/03/01 01:52:23;;;;;;;12.97;7.40;;;;;;;-0.78;72.21;96919.47;5031788;28;20205;-77
2021/03/01 01:54:48;;;;;;;13.37;8.03;;;;;;;-0.80;71.77;96918.66;5030426;28;20186;-77
2021/03/01 01:57:14;;;;;;;11.43;7.37;;;;;;;-0.87;72.00;96907.81;5030516;28;20205;-77
2021/03/01 01:59:40;;;;;;;9.63;6.70;;;;;;;-0.86;72.50;96909.47;5018375;28;20690;-77
2021/03/01 02:02:05;;;;;;;10.50;7.33;;;;;;;-0.94;72.26;96912.25;5010907;28;20662;-77
2021/03/01 02:04:34;;;;;;;10.00;6.83;;;;;;;-0.95;72.31;96908.03;5010405;28;20182;-77
2021/03/01 02:07:33;;;;;;;10.07;6.90;;;;;;;-0.94;72.62;96904.59;5010504;28;20676;-77
2021/03/01 02:09:58;;;;;;;11.63;6.90;;;;;;;-0.96;72.11;96903.81;5012794;28;20221;-77
2021/03/01 02:12:36;;;;;;;10.20;6.47;;;;;;;-1.00;72.79;96907.31;5011762;28;20211;-77
2021/03/01 02:15:03;;;;;;;9.80;6.90;;;;;;;-1.01;72.65;96905.66;5011719;28;20647;-77
2021/03/01 02:17:29;;;;;;;9.57;6.63;;;;;;;-1.03;72.57;96897.22;5027119;28;20179;-77
2021/03/01 02:19:54;;;;;;;12.50;7.03;;;;;;;-1.07;73.07;96887.97;5012793;28;20202;-77
2021/03/01 02:22:20;;;;;;;9.33;6.77;;;;;;;-1.05;73.04;96893.06;5018068;28;20189;-77
2021/03/01 02:25:05;;;;;;;10.67;7.30;;;;;;;-1.01;73.02;96890.34;5031320;28;20174;-77
2021/03/01 02:27:32;;;;;;;13.37;7.93;;;;;;;-0.92;72.58;96889.25;5030291;28;20175;-78
2021/03/01 02:30:03;;;;;;;11.80;7.40;;;;;;;-0.85;71.96;96888.19;5030139;28;20605;-77
2021/03/01 02:32:30;;;;;;;11.67;7.30;;;;;;;-0.83;72.56;96883.03;5011695;28;20215;-78
2021/03/01 02:34:56;;;;;;;10.83;7.00;;;;;;;-0.75;72.19;96876.84;5010269;28;20273;-77
2021/03/01 02:37:24;;;;;;;12.27;7.03;;;;;;;-0.69;71.66;96881.75;5010526;28;20171;-77
2021/03/01 02:39:50;;;;;;;15.20;8.07;;;;;;;-0.70;71.77;96884.34;5010413;28;20234;-77
2021/03/01 02:42:26;;;;;;;10.07;7.07;;;;;;;-0.65;71.46;96879.94;5011394;28;20203;-77
2021/03/01 02:44:55;;;;;;;11.50;7.43;;;;;;;-0.59;71.24;96887.41;5010256;28;20185;-78
2021/03/01 02:47:22;;;;;;;11.27;7.30;;;;;;;-0.49;70.77;96881.13;5010237;28;20549;-77
2021/03/01 02:49:47;;;;;;;10.07;7.30;;;;;;;-0.52;71.02;96873.59;5010335;28;20195;-77
2021/03/01 02:52:14;;;;;;;10.70;7.33;;;;;;;-0.56;70.75;96879.66;5011449;28;20191;-77
2021/03/01 02:54:39;;;;;;;11.87;7.67;;;;;;;-0.62;71.03;96884.94;5010064;28;20191;-77
2021/03/01 02:57:06;;;;;;;10.90;7.47;;;;;;;-0.52;71.16;96882.97;5010289;28;20319;-77
2021/03/01 02:59:33;;;;;;;12.37;7.87;;;;;;;-0.50;70.68;96878.63;5010197;28;20222;-77
2021/03/01 03:01:58;;;;;;;11.10;7.43;;;;;;;-0.42;70.45;96882.63;5010215;28;20174;-77
2021/03/01 03:04:25;;;;;;;12.00;7.90;;;;;;;-0.45;70.44;96886.97;4994921;28;20190;-78
2021/03/01 03:06:51;;;;;;;10.10;7.27;;;;;;;-0.47;70.69;96886.19;5010063;28;20197;-77
2021/03/01 03:09:16;;;;;;;11.37;8.50;;;;;;;-0.49;70.64;96880.31;5010118;28;20687;-77
2021/03/01 03:11:43;;;;;;;12.57;8.80;;;;;;;-0.51;70.48;96879.53;5009984;28;20701;-77
2021/03/01 03:14:09;;;;;;;11.83;7.77;;;;;;;-0.51;70.67;96879.53;5011116;28;20183;-78
2021/03/01 03:16:35;;;;;;;11.27;8.33;;;;;;;-0.46;70.50;96877.66;4993608;28;20257;-78
2021/03/01 03:19:00;;;;;;;13.57;8.77;;;;;;;-0.51;70.89;96877.81;5010706;28;20670;-77
2021/03/01 03:21:26;;;;;;;12.50;7.93;;;;;;;-0.47;70.60;96879.38;5013430;28;20195;-77
2021/03/01 03:23:54;;;;;;;12.97;8.33;;;;;;;-0.56;70.57;96874.53;5014056;28;20678;-77
2021/03/01 03:26:19;;;;;;;14.17;8.27;;;;;;;-0.62;70.71;96872.19;5032980;28;20179;-77
2021/03/01 03:28:45;;;;;;;14.17;8.83;;;;;;;-0.62;70.90;96878.16;5031608;28;20195;-77
2021/03/01 03:31:11;;;;;;;12.87;8.27;;;;;;;-0.64;70.88;96881.59;5033101;28;20174;-77
2021/03/01 03:33:41;;;;;;;13.77;8.93;;;;;;;-0.69;70.99;96873.28;5034245;28;20182;-77
2021/03/01 03:36:06;;;;;;;12.87;8.03;;;;;;;-0.71;71.31;96872.47;5020020;28;20265;-78
2021/03/01 03:38:36;;;;;;;10.00;7.20;;;;;;;-0.72;71.53;96878.44;5013448;28;20237;-77
2021/03/01 03:41:02;;;;;;;13.67;8.47;;;;;;;-0.73;70.99;96875.06;4996939;28;20679;-78
2021/03/01 03:43:29;;;;;;;11.63;7.97;;;;;;;-0.69;70.93;96873.28;5013247;28;20166;-77
2021/03/01 03:45:56;;;;;;;14.03;8.17;;;;;;;-0.69;70.67;96873.28;5014064;28;20183;-78
2021/03/01 03:48:23;;;;;;;12.23;7.90;;;;;;;-0.74;71.03;96868.28;5013178;28;20179;-77
2021/03/01 03:50:53;;;;;;;10.03;7.03;;;;;;;-0.78;71.31;96865.91;5013820;28;20351;-77
2021/03/01 03:53:23;;;;;;;10.43;7.50;;;;;;;-0.76;70.73;96866.69;5013347;28;20211;-77
2021/03/01 03:55:49;;;;;;;11.03;7.50;;;;;;;-0.70;70.63;96869.88;5027918;28;20268;-78
2021/03/01 03:58:19;;;;;;;11.97;7.63;;;;;;;-0.71;70.43;96864.81;5058171;28;20174;-77
2021/03/01 04:00:48;;;;;;;11.67;7.90;;;;;;;-0.68;69.94;96868.13;5042265;28;20199;-77
2021/03/01 04:03:13;;;;;;;11.87;6.73;;;;;;;-0.71;70.42;96865.63;5059166;28;20159;-78
2021/03/01 04:05:40;;;;;;;10.90;6.90;;;;;;;-0.78;70.22;96871.00;5058748;28;20181;-80
2021/03/01 04:08:07;;;;;;;10.50;7.53;;;;;;;-0.87;70.45;96870.41;5045734;28;20167;-78
2021/03/01 04:10:33;;;;;;;10.23;7.47;;;;;;;-0.84;70.64;96872.00;5038964;28;20184;-77
2021/03/01 04:13:00;;;;;;;11.50;7.10;;;;;;;-0.87;70.47;96872.94;5038633;28;20207;-78
2021/03/01 04:15:27;;;;;;;10.73;6.90;;;;;;;-0.78;70.17;96871.00;5039094;28;20174;-78
2021/03/01 04:17:53;;;;;;;11.43;6.53;;;;;;;-0.84;70.42;96866.06;5023032;28;20218;-78
2021/03/01 04:20:22;;;;;;;9.77;6.67;;;;;;;-0.87;70.17;96862.75;4996725;28;20289;-78
2021/03/01 04:22:48;;;;;;;12.77;7.60;;;;;;;-0.95;70.41;96858.75;5013183;28;20635;-78
2021/03/01 04:25:14;;;;;;;9.63;6.73;;;;;;;-1.00;70.44;96863.97;5013450;28;20229;-78
2021/03/01 04:27:40;;;;;;;11.23;6.80;;;;;;;-1.04;70.70;96859.03;5016155;28;20183;-78
2021/03/01 04:30:09;;;;;;;11.13;7.27;;;;;;;-1.07;70.87;96856.56;5016427;28;20267;-77
2021/03/01 04:32:37;;;;;;;9.60;6.87;;;;;;;-1.11;70.94;96868.56;5034496;28;20207;-78
2021/03/01 04:35:04;;;;;;;11.93;7.93;;;;;;;-1.15;70.85;96862.72;5015137;28;20182;-78
2021/03/01 04:37:30;;;;;;;10.97;7.10;;;;;;;-1.11;70.90;96860.09;5023571;28;20269;-77
2021/03/01 04:39:55;;;;;;;13.33;7.67;;;;;;;-1.18;72.02;96867.06;5031994;28;20237;-77
2021/03/01 04:42:20;;;;;;;9.47;7.13;;;;;;;-1.21;71.07;96862.06;5032045;28;20210;-77
2021/03/01 04:44:46;;;;;;;9.50;7.60;;;;;;;-1.24;71.32;96864.69;5015496;28;20188;-77
2021/03/01 04:47:13;;;;;;;11.03;6.83;;;;;;;-1.26;71.41;96862.19;5013597;28;20207;-77
2021/03/01 04:49:39;;;;;;;10.23;6.90;;;;;;;-1.28;71.87;96863.13;5031861;28;20205;-78
2021/03/01 04:52:04;;;;;;;11.53;7.80;;;;;;;-1.30;71.96;96862.34;5015168;28;20198;-78
2021/03/01 04:54:29;;;;;;;10.23;6.60;;;;;;;-1.25;71.45;96860.47;5031478;28;20185;-77
2021/03/01 04:56:55;;;;;;;9.30;7.03;;;;;;;-1.18;71.79;96860.25;5014987;28;20186;-77
2021/03/01 04:59:20;;;;;;;10.63;6.67;;;;;;;-1.26;71.28;96854.53;5014717;28;20716;-78
2021/03/01 05:01:48;;;;;;;9.93;7.27;;;;;;;-1.24;71.50;96854.47;5015026;28;20179;-78
2021/03/01 05:04:13;;;;;;;11.70;7.47;;;;;;;-1.28;71.69;96851.19;5015060;28;20294;-77
2021/03/01 05:06:39;;;;;;;10.27;7.20;;;;;;;-1.18;71.87;96849.22;5015137;28;20282;-78
2021/03/01 05:09:04;;;;;;;8.90;6.83;;;;;;;-1.18;71.78;96857.69;5024557;28;20300;-78
2021/03/01 05:11:35;;;;;;;10.43;7.23;;;;;;;-1.20;71.59;96851.00;5026762;28;20186;-78
2021/03/01 05:14:01;;;;;;;10.17;7.10;;;;;;;-1.11;71.59;96863.47;5024328;28;20186;-77
2021/03/01 05:16:29;;;;;;;11.07;7.80;;;;;;;-1.24;71.74;96857.88;5022212;28;20174;-77
2021/03/01 05:18:56;;;;;;;10.87;7.30;;;;;;;-1.22;71.68;96863.78;5020936;28;20229;-77
2021/03/01 05:21:21;;;;;;;10.30;7.50;;;;;;;-1.32;71.73;96867.47;5017838;28;20179;-78
2021/03/01 05:23:47;;;;;;;10.30;7.50;;;;;;;-1.33;72.28;96862.41;5011382;28;20583;-77
2021/03/01 05:26:14;;;;;;;10.90;7.30;;;;;;;-1.36;72.57;96868.41;5011105;28;20610;-78
2021/03/01 05:28:40;;;;;;;11.27;7.37;;;;;;;-1.33;72.26;96872.59;5011776;28;20181;-78
2021/03/01 05:31:05;;;;;;;10.37;7.10;;;;;;;-1.30;72.32;96864.88;5012457;28;20267;-77
2021/03/01 05:33:31;;;;;;;10.83;7.37;;;;;;;-1.34;72.30;96860.72;5047344;28;20670;-77
2021/03/01 05:35:57;;;;;;;12.73;8.70;;;;;;;-1.37;71.94;96860.81;5030634;28;20201;-77
2021/03/01 05:38:22;;;;;;;12.93;7.60;;;;;;;-1.36;72.62;96865.03;5030475;28;20174;-77
2021/03/01 05:40:48;;;;;;;12.73;8.53;;;;;;;-1.37;72.15;96871.84;5026603;28;20614;-77
2021/03/01 05:43:15;;;;;;;12.20;7.93;;;;;;;-1.35;72.23;96871.81;5010576;28;20171;-77
2021/03/01 05:45:43;;;;;;;12.43;7.77;;;;;;;-1.20;72.26;96873.94;5010851;28;20184;-77
2021/03/01 05:48:10;;;;;;;11.47;8.17;;;;;;;-1.31;71.94;96871.69;4994766;28;20674;-77
2021/03/01 05:50:40;;;;;;;11.83;7.93;;;;;;;-1.35;72.50;96876.91;5011049;28;20206;-77
2021/03/01 05:53:08;;;;;;;10.60;7.57;;;;;;;-1.37;72.29;96876.13;5011451;28;20211;-78
2021/03/01 05:55:34;;;;;;;10.73;7.40;;;;;;;-1.34;72.39;96876.03;5030466;28;20227;-78
2021/03/01 05:58:01;;;;;;;10.73;7.67;;;;;;;-1.34;72.44;96876.03;5030643;28;20726;-78
2021/03/01 06:00:27;;;;;;;10.97;8.00;;;;;;;-1.33;71.94;96880.25;5030602;28;20272;-77
2021/03/01 06:02:53;;;;;;;13.20;8.27;;;;;;;-1.38;72.41;96879.53;5020666;28;20168;-78
2021/03/01 06:05:18;;;;;;;12.97;8.03;;;;;;;-1.40;72.42;96884.69;5010587;28;20208;-78
2021/03/01 06:07:45;;;;;;;12.47;7.80;;;;;;;-1.35;72.26;96882.00;5011001;28;20179;-78
2021/03/01 06:10:10;;;;;;;11.00;7.50;;;;;;;-1.35;72.25;96879.44;5010659;28;20197;-78
2021/03/01 06:12:35;;;;;;;12.40;8.20;;;;;;;-1.22;72.22;96885.88;5011725;28;20227;-78
2021/03/01 06:15:01;;;;;;;12.40;8.03;;;;;;;-1.18;71.92;96887.47;5026926;28;20645;-78
2021/03/01 06:17:27;;;;;;;13.57;7.60;;;;;;;-1.22;71.64;96885.88;5010922;28;20819;-78
2021/03/01 06:19:57;;;;;;;13.00;8.47;;;;;;;-1.18;71.59;96887.47;5011798;28;20208;-78
2021/03/01 06:22:43;;;;;;;13.57;8.47;;;;;;;-1.18;72.30;96887.47;5010675;28;20542;-78
2021/03/01 06:25:09;;;;;;;15.27;9.13;;;;;;;-1.21;71.81;96880.75;5027150;28;20293;-77
2021/03/01 06:27:52;;;;;;;13.77;8.63;;;;;;;-1.12;71.90;96887.28;5031650;28;20320;-78
2021/03/01 06:30:26;;;;;;;12.93;8.47;;;;;;;-1.07;71.71;96885.44;5030499;28;20206;-76
2021/03/01 06:33:03;;;;;;;12.50;8.03;;;;;;;-1.07;71.52;96887.97;5030782;28;20700;-77
2021/03/01 06:35:32;;;;;;;11.07;7.80;;;;;;;-0.99;71.69;96888.59;5015906;28;20195;-76
2021/03/01 06:38:18;;;;;;;12.80;8.77;;;;;;;-0.92;71.31;96897.75;5027107;28;20647;-76
2021/03/01 06:40:44;;;;;;;15.20;8.53;;;;;;;-0.92;71.14;96897.75;5010842;28;20737;-77
2021/03/01 06:43:14;;;;;;;12.07;8.33;;;;;;;-0.84;71.36;96896.69;5010632;28;20175;-77
2021/03/01 06:45:40;;;;;;;13.90;9.20;;;;;;;-0.82;71.01;96900.00;5003639;28;20198;-77
2021/03/01 06:48:06;;;;;;;15.43;8.70;;;;;;;-0.80;71.24;96899.09;5030691;28;20780;-77
2021/03/01 06:50:32;;;;;;;13.63;8.60;;;;;;;-0.71;71.11;96903.91;5013790;28;20335;-77
2021/03/01 06:53:11;;;;;;;12.20;7.93;;;;;;;-0.59;70.70;96908.66;5030504;28;20202;-77
2021/03/01 06:55:57;;;;;;;12.23;8.27;;;;;;;-0.57;70.46;96908.59;5029345;28;20190;-78
2021/03/01 06:58:25;;;;;;;10.37;8.00;;;;;;;-0.49;70.28;96904.09;5018693;28;20663;-76
2021/03/01 07:01:00;;;;;;;12.00;8.27;;;;;;;-0.33;69.89;96907.03;5014804;28;20203;-78
2021/03/01 07:03:25;;;;;;;14.80;8.23;;;;;;;-0.19;69.42;96907.41;5014185;28;20253;-77
2021/03/01 07:05:52;;;;;;;15.57;8.70;;;;;;;-0.15;68.88;96910.69;4998535;28;20665;-77
2021/03/01 07:08:34;;;;;;;11.30;7.57;;;;;;;-0.07;69.07;96911.28;4997830;28;20191;-77
2021/03/01 07:11:00;;;;;;;11.20;8.00;;;;;;;0.11;68.68;96908.13;5015340;28;20294;-77
2021/03/01 07:13:26;;;;;;;13.23;8.73;;;;;;;0.24;68.08;96911.94;5013900;28;20188;-77
2021/03/01 07:15:52;;;;;;;14.53;7.90;;;;;;;0.23;68.19;96912.00;5013714;28;20518;-77
2021/03/01 07:18:18;;;;;;;13.47;8.37;;;;;;;0.33;68.09;96915.91;5016084;28;20192;-77
2021/03/01 07:20:43;;;;;;;13.37;8.03;;;;;;;0.43;67.40;96906.19;5013607;28;20207;-77
2021/03/01 07:23:09;;;;;;;13.27;8.63;;;;;;;0.41;67.93;96907.97;5013735;28;20172;-76
2021/03/01 07:25:34;;;;;;;11.20;8.23;;;;;;;0.56;67.60;96905.72;5013489;28;20183;-77
2021/03/01 07:27:59;;;;;;;12.43;8.13;;;;;;;0.61;67.39;96908.09;5020412;28;20661;-77
2021/03/01 07:30:26;;;;;;;13.23;9.47;;;;;;;0.71;67.02;96904.38;5033920;28;20201;-77
2021/03/01 07:32:51;;;;;;;12.07;8.13;;;;;;;0.77;67.08;96910.97;5016779;28;20275;-77
2021/03/01 07:35:17;;;;;;;10.73;7.90;;;;;;;0.75;66.86;96900.78;5030680;28;20686;-76
2021/03/01 07:37:42;;;;;;;12.77;8.30;;;;;;;0.87;66.86;96908.91;5025663;28;20591;-76
2021/03/01 07:40:08;;;;;;;13.40;8.53;;;;;;;0.94;66.77;96912.91;5032768;28;20732;-76
2021/03/01 07:42:38;;;;;;;14.10;8.60;;;;;;;1.07;66.05;96916.72;5032588;28;20183;-76
2021/03/01 07:45:05;;;;;;;13.63;8.90;;;;;;;1.13;65.94;96913.91;5016026;28;20185;-76
2021/03/01 07:47:30;;;;;;;12.77;8.00;;;;;;;1.24;66.18;96916.91;5032773;28;20183;-76
2021/03/01 07:49:56;;;;;;;12.03;8.00;;;;;;;1.30;65.59;96924.34;5030647;28;20747;-76
2021/03/01 07:52:24;;;;;;;11.43;8.50;;;;;;;1.36;65.38;96913.88;5032821;28;20217;-76
2021/03/01 07:54:59;;;;;;;13.37;9.20;;;;;;;1.40;65.15;96922.28;5032568;28;20232;-76
2021/03/01 07:57:26;;;;;;;11.03;7.67;;;;;;;1.43;65.18;96927.28;5032650;28;20210;-76
2021/03/01 07:59:52;;;;;;;11.30;8.33;;;;;;;1.49;65.45;96926.22;5027753;28;20845;-76
2021/03/01 08:02:23;;;;;;;10.60;7.70;;;;;;;1.60;64.78;96931.78;5014266;28;20179;-77
2021/03/01 08:04:50;;;;;;;10.23;7.90;;;;;;;1.75;64.05;96928.59;5028771;28;20682;-76
2021/03/01 08:07:15;;;;;;;9.40;7.67;;;;;;;1.73;64.74;96925.25;4996479;28;20183;-76
2021/03/01 08:09:44;;;;;;;12.37;8.40;;;;;;;1.88;63.99;96923.84;5012654;28;20698;-78
2021/03/01 08:12:11;;;;;;;13.33;7.90;;;;;;;1.92;64.24;96915.94;5013538;28;20215;-77
2021/03/01 08:14:48;;;;;;;13.57;9.27;;;;;;;1.94;63.99;96919.31;5012428;28;20179;-78
2021/03/01 08:17:26;;;;;;;12.63;7.77;;;;;;;2.03;63.51;96917.25;5013834;28;20186;-77
2021/03/01 08:19:55;;;;;;;11.10;8.20;;;;;;;2.13;63.35;96921.13;5012444;28;20206;-78
2021/03/01 08:22:20;;;;;;;10.33;8.10;;;;;;;2.17;63.70;96914.97;5013633;28;20254;-77
2021/03/01 08:24:50;;;;;;;11.53;8.00;;;;;;;2.24;63.17;96916.38;5014979;28;20659;-78
2021/03/01 08:27:24;;;;;;;11.50;7.97;;;;;;;2.35;63.21;96921.88;5032039;28;20183;-77
2021/03/01 08:30:21;;;;;;;11.60;8.03;;;;;;;2.35;63.02;96929.56;5033201;28;20225;-77
2021/03/01 08:33:08;;;;;;;9.63;7.40;;;;;;;2.37;63.23;96922.66;5019968;28;20203;-77
2021/03/01 08:35:34;;;;;;;12.13;8.43;;;;;;;2.45;62.92;96915.47;5028196;28;20198;-78
2021/03/01 08:38:00;;;;;;;11.17;8.17;;;;;;;2.49;62.84;96924.72;5028632;28;20278;-77
2021/03/01 08:40:25;;;;;;;12.50;8.33;;;;;;;2.58;62.25;96920.94;5012029;28;20234;-77
2021/03/01 08:43:00;;;;;;;10.97;7.30;;;;;;;2.51;62.54;96928.03;5014039;28;20203;-78
2021/03/01 08:45:45;;;;;;;11.10;8.33;;;;;;;2.66;62.62;96923.16;5011635;28;20185;-76
2021/03/01 08:48:17;;;;;;;12.87;7.67;;;;;;;2.79;62.23;96920.00;5012001;28;20180;-77
2021/03/01 08:50:43;;;;;;;14.00;8.20;;;;;;;2.73;62.77;96919.41;4995565;28;20203;-77
2021/03/01 08:53:11;;;;;;;13.87;7.57;;;;;;;2.90;61.58;96922.09;5015196;28;20229;-78
2021/03/01 08:55:39;;;;;;;12.50;7.20;;;;;;;3.00;60.42;96917.38;5031322;28;20265;-77
2021/03/01 08:58:08;;;;;;;13.23;7.23;;;;;;;3.03;61.20;96920.66;5031589;28;20244;-77
2021/03/01 09:00:35;;;;;;;10.00;7.17;;;;;;;3.11;60.96;96918.59;5033122;28;20689;-77
2021/03/01 09:03:10;;;;;;;10.97;7.33;;;;;;;3.24;60.36;96911.16;5014708;28;20202;-76
2021/03/01 09:05:35;;;;;;;10.50;7.63;;;;;;;3.25;59.94;96917.13;5029916;28;20187;-77
2021/03/01 09:08:01;;;;;;;10.60;7.60;;;;;;;3.36;60.42;96912.34;5015154;28;20621;-77
2021/03/01 09:10:34;;;;;;;10.63;7.23;;;;;;;3.48;60.06;96921.22;5031153;28;20302;-77
2021/03/01 09:13:00;;;;;;;9.70;6.60;;;;;;;3.66;58.18;96912.66;5029168;28;20309;-77
2021/03/01 09:15:25;;;;;;;9.00;6.63;;;;;;;3.67;58.59;96910.00;5024492;28;20279;-77
2021/03/01 09:17:53;;;;;;;11.60;6.70;;;;;;;3.79;58.41;96923.16;5031715;28;20259;-77
2021/03/01 09:20:19;;;;;;;10.77;6.83;;;;;;;3.90;57.68;96920.94;5022697;28;20582;-77
2021/03/01 09:22:44;;;;;;;10.03;6.83;;;;;;;3.96;55.80;96928.34;5011349;28;20207;-75
2021/03/01 09:25:45;;;;;;;11.27;7.53;;;;;;;4.02;56.45;96922.91;5027275;28;20187;-76
2021/03/01 09:28:10;;;;;;;9.53;6.60;;;;;;;4.19;55.97;96922.94;5009778;28;20642;-76
2021/03/01 09:30:36;;;;;;;11.87;7.40;;;;;;;4.29;55.59;96919.91;4977465;28;20211;-76
2021/03/01 09:33:06;;;;;;;8.70;6.20;;;;;;;4.26;55.66;96919.16;4977643;28;20564;-75
2021/03/01 09:35:34;;;;;;;12.33;7.53;;;;;;;4.39;54.60;96923.69;4977799;28;20695;-76
2021/03/01 09:38:04;;;;;;;8.60;6.97;;;;;;;4.42;55.57;96920.97;5013487;28;20193;-76
2021/03/01 09:40:30;;;;;;;10.67;7.47;;;;;;;4.45;54.53;96913.09;5030129;28;20203;-75
2021/03/01 09:43:03;;;;;;;12.47;7.27;;;;;;;4.53;55.73;96928.97;5013367;28;20190;-76
2021/03/01 09:45:34;;;;;;;11.07;7.00;;;;;;;4.51;55.62;96920.50;5013679;28;20179;-75
2021/03/01 09:48:03;;;;;;;10.63;7.17;;;;;;;4.57;54.38;96919.34;5028084;28;20194;-76
2021/03/01 09:50:29;;;;;;;9.17;6.60;;;;;;;4.76;52.83;96912.34;5007335;28;20583;-76
2021/03/01 09:52:55;;;;;;;10.57;6.90;;;;;;;4.84;53.73;96918.78;5016999;28;20206;-76
2021/03/01 09:55:21;;;;;;;10.73;6.80;;;;;;;4.97;53.61;96916.41;5012658;28;20190;-77
2021/03/01 09:57:46;;;;;;;9.83;6.83;;;;;;;4.98;54.32;96917.25;5005754;28;20200;-77
2021/03/01 10:00:31;;;;;;;9.60;6.27;;;;;;;5.17;53.69;96907.63;5029492;28;20621;-77
2021/03/01 10:03:04;;;;;;;11.00;7.20;;;;;;;5.18;54.38;96909.28;5015149;28;20190;-78
2021/03/01 10:05:32;;;;;;;9.63;6.60;;;;;;;5.18;53.77;96911.88;5010791;28;20190;-76
2021/03/01 10:08:04;;;;;;;8.70;6.57;;;;;;;5.35;53.03;96909.22;5015770;28;20205;-74
2021/03/01 10:10:40;;;;;;;12.23;7.47;;;;;;;5.44;52.80;96914.81;5030401;28;20202;-74
2021/03/01 10:13:07;;;;;;;9.63;6.90;;;;;;;5.48;52.59;96913.72;5030534;28;20230;-73
2021/03/01 10:15:45;;;;;;;9.83;6.70;;;;;;;5.65;50.17;96921.34;5013705;28;20554;-74
2021/03/01 10:18:12;;;;;;;8.27;6.40;;;;;;;5.64;49.74;96909.38;5014196;28;20186;-73
2021/03/01 10:20:58;;;;;;;8.63;6.50;;;;;;;5.53;49.65;96909.16;5027234;28;20211;-73
2021/03/01 10:23:30;;;;;;;10.80;6.93;;;;;;;5.47;50.31;96904.31;5011830;28;20225;-73
2021/03/01 10:26:28;;;;;;;11.30;7.67;;;;;;;5.52;50.26;96910.91;5010468;28;20175;-76
2021/03/01 10:29:00;;;;;;;9.77;6.90;;;;;;;5.56;50.52;96914.13;4995548;28;20249;-74
2021/03/01 10:31:32;;;;;;;11.17;7.57;;;;;;;5.56;50.40;96908.97;5031166;28;20229;-76
2021/03/01 10:34:16;;;;;;;11.17;6.57;;;;;;;5.60;50.92;96906.16;5013569;28;20260;-74
2021/03/01 10:36:53;;;;;;;9.43;6.57;;;;;;;5.65;49.92;96908.47;5018015;28;20577;-73
2021/03/01 10:39:22;;;;;;;8.93;6.27;;;;;;;5.82;48.83;96902.38;5016368;28;20210;-74
2021/03/01 10:41:53;;;;;;;11.10;6.77;;;;;;;5.86;49.88;96909.03;5014241;28;20186;-74
2021/03/01 10:44:28;;;;;;;8.53;6.33;;;;;;;5.99;50.01;96901.47;5016344;28;20194;-73
2021/03/01 10:46:53;;;;;;;11.77;7.47;;;;;;;6.22;50.12;96896.69;5016417;28;20197;-73
2021/03/01 10:49:25;;;;;;;9.67;6.10;;;;;;;6.24;48.67;96899.16;5016278;28;20210;-75
2021/03/01 10:51:52;;;;;;;9.97;6.47;;;;;;;6.31;48.29;96897.06;5019175;28;20253;-74
2021/03/01 10:54:18;;;;;;;7.33;6.00;;;;;;;6.40;45.97;96899.94;5012663;28;20198;-73
2021/03/01 10:56:43;;;;;;;9.07;6.77;;;;;;;6.42;46.79;96892.94;5012999;28;20206;-74
2021/03/01 10:59:09;;;;;;;7.93;5.80;;;;;;;6.40;46.13;96889.63;4996459;28;20286;-74
2021/03/01 11:01:35;;;;;;;8.07;5.93;;;;;;;6.53;46.13;96887.97;4996215;28;20623;-74
2021/03/01 11:04:01;;;;;;;8.60;5.93;;;;;;;6.63;44.76;96887.47;4999729;28;20554;-74
2021/03/01 11:06:27;;;;;;;8.83;5.57;;;;;;;6.70;45.56;96886.16;5014998;28;20234;-74
2021/03/01 11:08:52;;;;;;;8.27;5.73;;;;;;;6.68;46.52;96890.59;5013712;28;20271;-74
2021/03/01 11:11:17;;;;;;;6.50;5.10;;;;;;;6.78;46.12;96879.63;5013806;28;20191;-74
2021/03/01 11:13:43;;;;;;;7.33;5.23;;;;;;;6.89;43.71;96881.56;5014913;28;20210;-74
2021/03/01 11:16:08;;;;;;;7.20;4.37;;;;;;;6.96;41.96;96884.59;5013500;28;20183;-74
2021/03/01 11:18:33;;;;;;;6.50;5.10;;;;;;;6.98;41.32;96888.75;5030162;28;20202;-75
2021/03/01 11:20:59;;;;;;;7.60;4.90;;;;;;;6.93;41.11;96882.19;5013699;28;20206;-76
2021/03/01 11:23:24;;;;;;;5.40;4.33;;;;;;;7.07;41.54;96882.22;5031049;28;20187;-76
2021/03/01 11:25:49;;;;;;;6.77;5.27;;;;;;;7.12;41.45;96884.50;5014563;28;20191;-76
2021/03/01 11:28:15;;;;;;;6.93;5.47;;;;;;;7.20;41.22;96877.94;5014845;28;20589;-76
2021/03/01 11:30:40;;;;;;;6.57;4.57;;;;;;;7.32;40.87;96884.09;5013566;28;20210;-75
2021/03/01 11:33:07;;;;;;;7.17;5.20;;;;;;;7.40;40.41;96879.28;5014449;28;20575;-75